sensor_id;sensor_type;location;lat;lon;timestamp;pressure;altitude;pressure_sealevel;temperature;humidity
33454;BME280;39400;49.744;7.012;2023-06-22T00:02:11;96185.78;;;25.13;75.47
33454;BME280;39400;49.744;7.012;2023-06-22T00:04:36;96222.66;;;25.30;76.03
33454;BME280;39400;49.744;7.012;2023-06-22T00:07:01;96159.34;;;24.96;75.94
33454;BME280;39400;49.744;7.012;2023-06-22T00:09:27;96201.50;;;25.20;76.15
33454;BME280;39400;49.744;7.012;2023-06-22T00:11:52;96089.66;;;24.32;77.46
33454;BME280;39400;49.744;7.012;2023-06-22T00:14:17;96083.09;;;24.64;76.82
33454;BME280;39400;49.744;7.012;2023-06-22T00:16:43;96150.25;;;25.16;76.67
33454;BME280;39400;49.744;7.012;2023-06-22T00:19:08;96142.00;;;24.98;77.66
33454;BME280;39400;49.744;7.012;2023-06-22T00:21:34;96150.22;;;24.72;80.54
33454;BME280;39400;49.744;7.012;2023-06-22T00:23:59;96147.13;;;24.84;79.63
33454;BME280;39400;49.744;7.012;2023-06-22T00:26:24;96149.44;;;24.71;81.23
33454;BME280;39400;49.744;7.012;2023-06-22T00:28:50;96151.72;;;24.43;82.54
33454;BME280;39400;49.744;7.012;2023-06-22T00:31:15;96151.34;;;24.02;85.62
33454;BME280;39400;49.744;7.012;2023-06-22T00:33:41;96155.06;;;24.08;87.13
33454;BME280;39400;49.744;7.012;2023-06-22T00:36:06;96140.81;;;24.36;84.71
33454;BME280;39400;49.744;7.012;2023-06-22T00:38:31;96076.06;;;24.30;82.03
33454;BME280;39400;49.744;7.012;2023-06-22T00:40:57;96027.19;;;23.98;81.64
33454;BME280;39400;49.744;7.012;2023-06-22T00:43:22;96100.78;;;24.95;80.88
33454;BME280;39400;49.744;7.012;2023-06-22T00:45:47;96098.03;;;25.00;81.34
33454;BME280;39400;49.744;7.012;2023-06-22T00:48:13;96010.97;;;24.61;81.82
33454;BME280;39400;49.744;7.012;2023-06-22T00:50:40;96029.16;;;23.35;96.42
33454;BME280;39400;49.744;7.012;2023-06-22T00:53:07;96038.78;;;23.91;94.16
33454;BME280;39400;49.744;7.012;2023-06-22T00:55:32;96011.94;;;23.90;91.45
33454;BME280;39400;49.744;7.012;2023-06-22T00:57:58;96054.91;;;24.05;92.72
33454;BME280;39400;49.744;7.012;2023-06-22T01:00:24;96072.63;;;24.50;89.78
33454;BME280;39400;49.744;7.012;2023-06-22T01:02:51;96030.13;;;24.18;88.85
33454;BME280;39400;49.744;7.012;2023-06-22T01:05:18;96073.00;;;24.43;88.70
33454;BME280;39400;49.744;7.012;2023-06-22T01:08:05;96109.84;;;24.45;90.12
33454;BME280;39400;49.744;7.012;2023-06-22T01:10:36;96126.31;;;24.52;88.98
33454;BME280;39400;49.744;7.012;2023-06-22T01:13:10;96128.56;;;23.43;100.00
33454;BME280;39400;49.744;7.012;2023-06-22T01:16:03;96013.28;;;22.89;100.00
33454;BME280;39400;49.744;7.012;2023-06-22T01:18:32;96154.47;;;23.38;100.00
33454;BME280;39400;49.744;7.012;2023-06-22T01:21:00;96156.16;;;23.02;100.00
33454;BME280;39400;49.744;7.012;2023-06-22T01:23:33;96101.47;;;23.40;100.00
33454;BME280;39400;49.744;7.012;2023-06-22T01:26:17;96157.63;;;24.21;96.26
33454;BME280;39400;49.744;7.012;2023-06-22T01:28:50;96135.25;;;24.27;93.04
33454;BME280;39400;49.744;7.012;2023-06-22T01:31:24;96128.00;;;24.35;91.71
33454;BME280;39400;49.744;7.012;2023-06-22T01:33:54;96141.28;;;24.58;89.70
33454;BME280;39400;49.744;7.012;2023-06-22T01:36:22;96032.22;;;23.94;89.03
33454;BME280;39400;49.744;7.012;2023-06-22T01:38:49;96128.28;;;24.76;88.85
33454;BME280;39400;49.744;7.012;2023-06-22T01:41:18;96080.59;;;24.28;92.62
33454;BME280;39400;49.744;7.012;2023-06-22T01:43:46;96016.44;;;24.11;94.69
33454;BME280;39400;49.744;7.012;2023-06-22T01:46:13;95922.78;;;23.61;97.33
33454;BME280;39400;49.744;7.012;2023-06-22T01:48:39;95932.50;;;23.75;97.61
33454;BME280;39400;49.744;7.012;2023-06-22T01:51:05;95957.03;;;23.89;95.20
33454;BME280;39400;49.744;7.012;2023-06-22T01:53:30;95919.06;;;22.16;100.00
33454;BME280;39400;49.744;7.012;2023-06-22T01:55:56;96020.16;;;21.54;100.00
33454;BME280;39400;49.744;7.012;2023-06-22T01:58:25;96043.47;;;21.42;100.00
33454;BME280;39400;49.744;7.012;2023-06-22T02:01:12;96064.06;;;22.30;100.00
33454;BME280;39400;49.744;7.012;2023-06-22T02:03:46;96069.44;;;23.22;100.00
33454;BME280;39400;49.744;7.012;2023-06-22T02:06:40;96066.25;;;23.39;100.00
33454;BME280;39400;49.744;7.012;2023-06-22T02:09:12;96056.22;;;23.95;100.00
33454;BME280;39400;49.744;7.012;2023-06-22T02:11:41;96025.66;;;24.12;100.00
33454;BME280;39400;49.744;7.012;2023-06-22T02:14:08;95969.00;;;23.75;99.09
33454;BME280;39400;49.744;7.012;2023-06-22T02:16:34;96019.84;;;24.30;96.57
33454;BME280;39400;49.744;7.012;2023-06-22T02:19:02;96039.47;;;24.54;94.72
33454;BME280;39400;49.744;7.012;2023-06-22T02:21:27;96042.41;;;24.60;93.16
33454;BME280;39400;49.744;7.012;2023-06-22T02:23:53;96029.31;;;24.57;92.61
33454;BME280;39400;49.744;7.012;2023-06-22T02:26:18;96033.75;;;24.63;91.75
33454;BME280;39400;49.744;7.012;2023-06-22T02:28:44;96050.50;;;24.73;91.62
33454;BME280;39400;49.744;7.012;2023-06-22T02:31:10;96030.19;;;24.63;90.86
33454;BME280;39400;49.744;7.012;2023-06-22T02:33:35;96028.81;;;24.58;91.45
33454;BME280;39400;49.744;7.012;2023-06-22T02:36:00;95950.66;;;24.03;91.53
33454;BME280;39400;49.744;7.012;2023-06-22T02:38:26;95996.81;;;24.41;90.96
33454;BME280;39400;49.744;7.012;2023-06-22T02:40:51;96042.38;;;24.75;90.60
33454;BME280;39400;49.744;7.012;2023-06-22T02:43:17;96030.34;;;24.74;90.14
33454;BME280;39400;49.744;7.012;2023-06-22T02:45:43;96028.03;;;24.73;90.33
33454;BME280;39400;49.744;7.012;2023-06-22T02:48:09;96023.56;;;24.51;91.73
33454;BME280;39400;49.744;7.012;2023-06-22T02:50:35;96014.28;;;24.60;90.85
33454;BME280;39400;49.744;7.012;2023-06-22T02:53:01;95990.91;;;24.54;90.17
33454;BME280;39400;49.744;7.012;2023-06-22T02:55:30;96016.56;;;24.76;89.96
33454;BME280;39400;49.744;7.012;2023-06-22T02:57:57;95995.63;;;24.62;88.56
33454;BME280;39400;49.744;7.012;2023-06-22T03:00:23;95903.97;;;23.91;88.95
33454;BME280;39400;49.744;7.012;2023-06-22T03:02:49;95976.84;;;24.39;89.07
33454;BME280;39400;49.744;7.012;2023-06-22T03:05:15;95943.88;;;24.25;88.20
33454;BME280;39400;49.744;7.012;2023-06-22T03:07:41;95987.72;;;24.46;88.53
33454;BME280;39400;49.744;7.012;2023-06-22T03:10:10;95992.84;;;24.62;87.88
33454;BME280;39400;49.744;7.012;2023-06-22T03:12:38;95990.78;;;24.33;90.07
33454;BME280;39400;49.744;7.012;2023-06-22T03:15:08;96007.66;;;24.33;90.74
33454;BME280;39400;49.744;7.012;2023-06-22T03:17:35;95962.63;;;23.02;100.00
33454;BME280;39400;49.744;7.012;2023-06-22T03:20:01;95956.25;;;23.73;94.89
33454;BME280;39400;49.744;7.012;2023-06-22T03:22:27;95975.84;;;24.12;92.45
33454;BME280;39400;49.744;7.012;2023-06-22T03:24:52;95912.63;;;23.63;92.07
33454;BME280;39400;49.744;7.012;2023-06-22T03:27:18;95967.72;;;24.14;91.03
33454;BME280;39400;49.744;7.012;2023-06-22T03:29:43;95979.53;;;24.18;90.27
33454;BME280;39400;49.744;7.012;2023-06-22T03:32:08;95987.47;;;24.05;90.72
33454;BME280;39400;49.744;7.012;2023-06-22T03:34:34;95962.44;;;23.78;91.83
33454;BME280;39400;49.744;7.012;2023-06-22T03:36:59;95979.31;;;24.07;90.08
33454;BME280;39400;49.744;7.012;2023-06-22T03:39:25;95965.47;;;23.89;91.29
33454;BME280;39400;49.744;7.012;2023-06-22T03:41:50;95948.09;;;23.76;90.88
33454;BME280;39400;49.744;7.012;2023-06-22T03:44:17;95941.31;;;23.67;91.28
33454;BME280;39400;49.744;7.012;2023-06-22T03:46:42;95989.59;;;24.10;90.40
33454;BME280;39400;49.744;7.012;2023-06-22T03:49:08;95864.06;;;22.94;93.29
33454;BME280;39400;49.744;7.012;2023-06-22T03:51:33;95957.13;;;23.56;93.82
33454;BME280;39400;49.744;7.012;2023-06-22T03:53:58;95977.66;;;23.86;92.83
33454;BME280;39400;49.744;7.012;2023-06-22T03:56:24;95929.16;;;23.61;91.51
33454;BME280;39400;49.744;7.012;2023-06-22T03:58:49;95880.19;;;23.23;91.31
33454;BME280;39400;49.744;7.012;2023-06-22T04:01:14;95882.25;;;23.38;89.86
33454;BME280;39400;49.744;7.012;2023-06-22T04:03:41;95959.38;;;24.05;89.69
33454;BME280;39400;49.744;7.012;2023-06-22T04:06:06;95971.13;;;24.18;89.14
33454;BME280;39400;49.744;7.012;2023-06-22T04:08:31;95988.06;;;24.24;89.03
33454;BME280;39400;49.744;7.012;2023-06-22T04:10:57;95971.16;;;23.80;91.48
33454;BME280;39400;49.744;7.012;2023-06-22T04:13:22;95987.09;;;24.12;90.15
33454;BME280;39400;49.744;7.012;2023-06-22T04:15:47;95906.47;;;22.54;100.00
33454;BME280;39400;49.744;7.012;2023-06-22T04:18:13;95978.53;;;23.77;94.63
33454;BME280;39400;49.744;7.012;2023-06-22T04:20:38;95894.31;;;23.53;91.27
33454;BME280;39400;49.744;7.012;2023-06-22T04:23:04;95973.34;;;22.70;100.00
33454;BME280;39400;49.744;7.012;2023-06-22T04:25:29;95906.94;;;23.10;98.40
33454;BME280;39400;49.744;7.012;2023-06-22T04:27:55;95895.81;;;23.24;96.31
33454;BME280;39400;49.744;7.012;2023-06-22T04:30:20;95968.88;;;24.08;93.74
33454;BME280;39400;49.744;7.012;2023-06-22T04:32:45;95882.09;;;22.36;100.00
33454;BME280;39400;49.744;7.012;2023-06-22T04:35:11;95900.72;;;22.82;100.00
33454;BME280;39400;49.744;7.012;2023-06-22T04:37:37;95931.41;;;22.43;100.00
33454;BME280;39400;49.744;7.012;2023-06-22T04:40:02;95955.50;;;23.64;99.92
33454;BME280;39400;49.744;7.012;2023-06-22T04:42:28;95945.72;;;23.98;94.98
33454;BME280;39400;49.744;7.012;2023-06-22T04:44:53;95939.81;;;24.26;92.25
33454;BME280;39400;49.744;7.012;2023-06-22T04:47:19;95881.13;;;23.98;90.91
33454;BME280;39400;49.744;7.012;2023-06-22T04:49:44;95899.31;;;23.10;96.56
33454;BME280;39400;49.744;7.012;2023-06-22T04:52:11;95918.47;;;23.36;100.00
33454;BME280;39400;49.744;7.012;2023-06-22T04:54:38;95928.19;;;24.03;95.13
33454;BME280;39400;49.744;7.012;2023-06-22T04:57:05;95933.13;;;22.40;100.00
33454;BME280;39400;49.744;7.012;2023-06-22T04:59:31;95908.03;;;23.51;100.00
33454;BME280;39400;49.744;7.012;2023-06-22T05:01:58;95939.59;;;23.85;99.77
33454;BME280;39400;49.744;7.012;2023-06-22T05:04:25;95931.09;;;24.09;97.96
33454;BME280;39400;49.744;7.012;2023-06-22T05:06:51;95931.00;;;23.49;100.00
33454;BME280;39400;49.744;7.012;2023-06-22T05:09:17;95934.75;;;24.00;98.32
33454;BME280;39400;49.744;7.012;2023-06-22T05:11:44;95929.38;;;24.41;93.65
33454;BME280;39400;49.744;7.012;2023-06-22T05:14:09;95948.44;;;24.52;92.81
33454;BME280;39400;49.744;7.012;2023-06-22T05:16:34;95932.63;;;23.80;96.09
33454;BME280;39400;49.744;7.012;2023-06-22T05:19:00;95934.88;;;23.52;100.00
33454;BME280;39400;49.744;7.012;2023-06-22T05:21:26;95946.00;;;24.00;99.73
33454;BME280;39400;49.744;7.012;2023-06-22T05:23:53;95942.63;;;24.26;97.22
33454;BME280;39400;49.744;7.012;2023-06-22T05:26:19;95942.19;;;23.35;100.00
33454;BME280;39400;49.744;7.012;2023-06-22T05:28:46;95948.91;;;23.91;97.55
33454;BME280;39400;49.744;7.012;2023-06-22T05:31:13;95959.72;;;23.20;100.00
33454;BME280;39400;49.744;7.012;2023-06-22T05:33:40;95948.00;;;22.98;100.00
33454;BME280;39400;49.744;7.012;2023-06-22T05:36:06;95951.63;;;24.30;99.34
33454;BME280;39400;49.744;7.012;2023-06-22T05:38:31;95959.41;;;24.50;95.59
33454;BME280;39400;49.744;7.012;2023-06-22T05:40:56;95964.84;;;23.70;100.00
33454;BME280;39400;49.744;7.012;2023-06-22T05:43:22;95960.69;;;23.17;100.00
33454;BME280;39400;49.744;7.012;2023-06-22T05:45:47;95961.31;;;24.14;100.00
33454;BME280;39400;49.744;7.012;2023-06-22T05:48:13;95950.88;;;24.44;97.93
33454;BME280;39400;49.744;7.012;2023-06-22T05:50:38;95964.97;;;24.94;95.16
33454;BME280;39400;49.744;7.012;2023-06-22T05:53:03;95963.50;;;25.34;92.54
33454;BME280;39400;49.744;7.012;2023-06-22T05:55:29;95955.53;;;24.97;92.54
33454;BME280;39400;49.744;7.012;2023-06-22T05:57:54;95951.25;;;25.37;90.77
33454;BME280;39400;49.744;7.012;2023-06-22T06:00:20;95954.44;;;25.09;92.47
33454;BME280;39400;49.744;7.012;2023-06-22T06:02:45;95941.81;;;25.20;92.00
33454;BME280;39400;49.744;7.012;2023-06-22T06:05:13;95955.13;;;25.04;94.09
33454;BME280;39400;49.744;7.012;2023-06-22T06:07:39;95949.75;;;25.21;92.80
33454;BME280;39400;49.744;7.012;2023-06-22T06:10:05;95949.97;;;25.18;93.42
33454;BME280;39400;49.744;7.012;2023-06-22T06:12:30;95953.97;;;24.61;94.67
33454;BME280;39400;49.744;7.012;2023-06-22T06:14:55;95947.91;;;24.83;94.07
33454;BME280;39400;49.744;7.012;2023-06-22T06:17:21;95941.59;;;24.88;94.67
33454;BME280;39400;49.744;7.012;2023-06-22T06:19:46;95944.31;;;25.18;92.75
33454;BME280;39400;49.744;7.012;2023-06-22T06:22:11;95944.84;;;25.16;93.57
33454;BME280;39400;49.744;7.012;2023-06-22T06:24:37;95948.13;;;25.35;91.38
33454;BME280;39400;49.744;7.012;2023-06-22T06:27:02;95936.47;;;25.42;89.87
33454;BME280;39400;49.744;7.012;2023-06-22T06:29:27;95952.34;;;25.25;90.64
33454;BME280;39400;49.744;7.012;2023-06-22T06:31:53;95964.47;;;25.51;91.85
33454;BME280;39400;49.744;7.012;2023-06-22T06:34:18;95962.38;;;25.26;92.09
33454;BME280;39400;49.744;7.012;2023-06-22T06:36:43;95967.59;;;25.53;90.24
33454;BME280;39400;49.744;7.012;2023-06-22T06:39:15;95959.53;;;25.87;87.93
33454;BME280;39400;49.744;7.012;2023-06-22T06:41:40;95965.97;;;25.88;87.35
33454;BME280;39400;49.744;7.012;2023-06-22T06:44:14;95965.88;;;26.02;86.58
33454;BME280;39400;49.744;7.012;2023-06-22T06:46:39;95952.72;;;25.12;87.00
33454;BME280;39400;49.744;7.012;2023-06-22T06:49:05;95943.09;;;25.39;87.33
33454;BME280;39400;49.744;7.012;2023-06-22T06:51:30;95944.25;;;25.73;84.87
33454;BME280;39400;49.744;7.012;2023-06-22T06:53:55;95958.28;;;25.68;86.22
33454;BME280;39400;49.744;7.012;2023-06-22T06:56:21;95961.53;;;25.40;85.73
33454;BME280;39400;49.744;7.012;2023-06-22T06:58:46;95956.72;;;25.67;86.53
33454;BME280;39400;49.744;7.012;2023-06-22T07:01:14;95957.16;;;25.19;87.18
33454;BME280;39400;49.744;7.012;2023-06-22T07:03:40;95944.25;;;24.77;88.90
33454;BME280;39400;49.744;7.012;2023-06-22T07:06:05;95938.56;;;24.56;93.95
33454;BME280;39400;49.744;7.012;2023-06-22T07:08:31;95944.53;;;25.14;89.80
33454;BME280;39400;49.744;7.012;2023-06-22T07:10:56;95939.25;;;24.51;92.21
33454;BME280;39400;49.744;7.012;2023-06-22T07:13:21;95920.34;;;24.87;90.63
33454;BME280;39400;49.744;7.012;2023-06-22T07:15:47;95915.78;;;24.54;91.93
33454;BME280;39400;49.744;7.012;2023-06-22T07:18:12;95906.72;;;25.15;87.18
33454;BME280;39400;49.744;7.012;2023-06-22T07:20:37;95906.72;;;25.15;89.15
33454;BME280;39400;49.744;7.012;2023-06-22T07:23:03;95904.09;;;25.32;85.26
33454;BME280;39400;49.744;7.012;2023-06-22T07:25:28;95907.88;;;25.49;87.51
33454;BME280;39400;49.744;7.012;2023-06-22T07:28:04;95903.19;;;25.67;85.75
33454;BME280;39400;49.744;7.012;2023-06-22T07:30:30;95892.22;;;26.15;83.22
33454;BME280;39400;49.744;7.012;2023-06-22T07:32:57;95895.06;;;25.48;86.67
33454;BME280;39400;49.744;7.012;2023-06-22T07:35:22;95886.56;;;25.89;84.71
33454;BME280;39400;49.744;7.012;2023-06-22T07:37:48;95885.63;;;24.90;86.95
33454;BME280;39400;49.744;7.012;2023-06-22T07:40:13;95885.09;;;25.27;87.35
33454;BME280;39400;49.744;7.012;2023-06-22T07:42:39;95884.56;;;24.52;92.16
33454;BME280;39400;49.744;7.012;2023-06-22T07:45:04;95881.69;;;25.02;92.41
33454;BME280;39400;49.744;7.012;2023-06-22T07:47:30;95861.53;;;25.97;86.16
33454;BME280;39400;49.744;7.012;2023-06-22T07:49:57;95856.50;;;24.93;88.80
33454;BME280;39400;49.744;7.012;2023-06-22T07:52:24;95869.16;;;25.03;90.85
33454;BME280;39400;49.744;7.012;2023-06-22T07:54:49;95879.56;;;25.58;87.54
33454;BME280;39400;49.744;7.012;2023-06-22T07:57:14;95870.78;;;25.77;85.11
33454;BME280;39400;49.744;7.012;2023-06-22T07:59:40;95885.13;;;26.57;83.37
33454;BME280;39400;49.744;7.012;2023-06-22T08:02:05;95871.78;;;27.00;81.87
33454;BME280;39400;49.744;7.012;2023-06-22T08:04:30;95851.78;;;26.55;80.84
33454;BME280;39400;49.744;7.012;2023-06-22T08:06:56;95812.47;;;26.46;80.76
33454;BME280;39400;49.744;7.012;2023-06-22T08:09:21;95813.22;;;26.84;78.90
33454;BME280;39400;49.744;7.012;2023-06-22T08:11:47;95824.78;;;27.40;77.30
33454;BME280;39400;49.744;7.012;2023-06-22T08:14:12;95809.34;;;27.41;76.18
33454;BME280;39400;49.744;7.012;2023-06-22T08:16:37;95818.66;;;27.70;75.16
33454;BME280;39400;49.744;7.012;2023-06-22T08:19:03;95803.38;;;27.22;75.07
33454;BME280;39400;49.744;7.012;2023-06-22T08:21:28;95789.16;;;27.77;74.16
33454;BME280;39400;49.744;7.012;2023-06-22T08:23:53;95786.22;;;27.32;73.74
33454;BME280;39400;49.744;7.012;2023-06-22T08:26:19;95788.38;;;28.32;73.19
33454;BME280;39400;49.744;7.012;2023-06-22T08:28:44;95778.09;;;28.12;72.48
33454;BME280;39400;49.744;7.012;2023-06-22T08:31:10;95764.22;;;28.09;70.36
33454;BME280;39400;49.744;7.012;2023-06-22T08:33:35;95755.22;;;27.71;71.02
33454;BME280;39400;49.744;7.012;2023-06-22T08:36:00;95746.22;;;28.23;70.50
33454;BME280;39400;49.744;7.012;2023-06-22T08:38:26;95811.00;;;28.38;71.21
33454;BME280;39400;49.744;7.012;2023-06-22T08:40:51;95702.06;;;27.86;69.80
33454;BME280;39400;49.744;7.012;2023-06-22T08:43:16;95703.28;;;28.41;68.70
33454;BME280;39400;49.744;7.012;2023-06-22T08:45:42;95740.38;;;27.82;70.47
33454;BME280;39400;49.744;7.012;2023-06-22T08:48:07;95791.97;;;28.05;68.76
33454;BME280;39400;49.744;7.012;2023-06-22T08:50:33;95695.66;;;27.58;70.37
33454;BME280;39400;49.744;7.012;2023-06-22T08:52:58;95771.19;;;28.13;70.67
33454;BME280;39400;49.744;7.012;2023-06-22T08:55:23;95804.53;;;28.65;68.83
33454;BME280;39400;49.744;7.012;2023-06-22T08:57:48;95764.66;;;28.63;68.11
33454;BME280;39400;49.744;7.012;2023-06-22T09:00:14;95779.03;;;28.71;67.56
33454;BME280;39400;49.744;7.012;2023-06-22T09:02:40;95767.56;;;28.41;68.87
33454;BME280;39400;49.744;7.012;2023-06-22T09:05:05;95764.75;;;28.13;69.15
33454;BME280;39400;49.744;7.012;2023-06-22T09:07:31;95764.22;;;27.81;70.13
33454;BME280;39400;49.744;7.012;2023-06-22T09:09:56;95760.84;;;27.71;70.77
33454;BME280;39400;49.744;7.012;2023-06-22T09:12:21;95752.38;;;27.37;70.51
33454;BME280;39400;49.744;7.012;2023-06-22T09:14:47;95753.44;;;27.68;70.67
33454;BME280;39400;49.744;7.012;2023-06-22T09:17:13;95733.63;;;27.73;70.98
33454;BME280;39400;49.744;7.012;2023-06-22T09:19:38;95754.19;;;27.74;71.22
33454;BME280;39400;49.744;7.012;2023-06-22T09:22:04;95764.75;;;27.90;72.18
33454;BME280;39400;49.744;7.012;2023-06-22T09:24:30;95755.28;;;26.94;73.40
33454;BME280;39400;49.744;7.012;2023-06-22T09:26:55;95776.47;;;26.67;78.08
33454;BME280;39400;49.744;7.012;2023-06-22T09:29:20;95777.72;;;26.61;80.30
33454;BME280;39400;49.744;7.012;2023-06-22T09:31:55;95779.19;;;27.04;79.36
33454;BME280;39400;49.744;7.012;2023-06-22T09:34:39;95778.22;;;26.53;81.08
33454;BME280;39400;49.744;7.012;2023-06-22T09:37:04;95806.94;;;26.58;80.41
33454;BME280;39400;49.744;7.012;2023-06-22T09:39:30;95843.78;;;26.48;79.29
33454;BME280;39400;49.744;7.012;2023-06-22T09:41:55;95874.25;;;26.13;82.05
33454;BME280;39400;49.744;7.012;2023-06-22T09:44:20;95869.31;;;26.39;79.88
33454;BME280;39400;49.744;7.012;2023-06-22T09:46:45;95865.34;;;26.51;80.00
33454;BME280;39400;49.744;7.012;2023-06-22T09:49:11;95869.84;;;25.80;82.35
33454;BME280;39400;49.744;7.012;2023-06-22T09:51:36;95860.78;;;25.70;82.06
33454;BME280;39400;49.744;7.012;2023-06-22T09:54:01;95861.50;;;25.91;79.85
33454;BME280;39400;49.744;7.012;2023-06-22T09:56:27;95854.50;;;27.30;77.57
33454;BME280;39400;49.744;7.012;2023-06-22T09:58:52;95859.88;;;28.38;74.44
33454;BME280;39400;49.744;7.012;2023-06-22T10:01:17;95843.38;;;27.97;73.74
33454;BME280;39400;49.744;7.012;2023-06-22T10:03:43;95846.88;;;27.47;75.57
33454;BME280;39400;49.744;7.012;2023-06-22T10:06:08;95850.47;;;27.54;74.71
33454;BME280;39400;49.744;7.012;2023-06-22T10:08:34;95850.25;;;27.68;74.88
33454;BME280;39400;49.744;7.012;2023-06-22T10:10:59;95852.59;;;27.10;75.19
33454;BME280;39400;49.744;7.012;2023-06-22T10:13:25;95851.53;;;27.73;74.77
33454;BME280;39400;49.744;7.012;2023-06-22T10:15:50;95850.06;;;28.28;75.67
33454;BME280;39400;49.744;7.012;2023-06-22T10:18:15;95847.19;;;28.90;74.07
33454;BME280;39400;49.744;7.012;2023-06-22T10:20:41;95845.03;;;29.24;71.63
33454;BME280;39400;49.744;7.012;2023-06-22T10:23:06;95846.63;;;29.72;71.70
33454;BME280;39400;49.744;7.012;2023-06-22T10:25:31;95836.53;;;30.18;69.14
33454;BME280;39400;49.744;7.012;2023-06-22T10:27:57;95822.84;;;30.47;66.74
33454;BME280;39400;49.744;7.012;2023-06-22T10:30:22;95819.06;;;30.03;65.25
33454;BME280;39400;49.744;7.012;2023-06-22T10:32:47;95809.59;;;30.30;65.39
33454;BME280;39400;49.744;7.012;2023-06-22T10:35:13;95820.03;;;30.71;63.82
33454;BME280;39400;49.744;7.012;2023-06-22T10:37:38;95822.63;;;30.09;64.91
33454;BME280;39400;49.744;7.012;2023-06-22T10:40:04;95801.59;;;30.59;67.05
33454;BME280;39400;49.744;7.012;2023-06-22T10:42:29;95793.22;;;30.18;66.21
33454;BME280;39400;49.744;7.012;2023-06-22T10:44:55;95789.34;;;30.70;64.69
33454;BME280;39400;49.744;7.012;2023-06-22T10:47:20;95793.09;;;30.84;64.89
33454;BME280;39400;49.744;7.012;2023-06-22T10:49:45;95788.09;;;30.90;64.59
33454;BME280;39400;49.744;7.012;2023-06-22T10:52:11;95786.69;;;31.02;62.41
33454;BME280;39400;49.744;7.012;2023-06-22T10:54:38;95782.22;;;30.03;66.34
33454;BME280;39400;49.744;7.012;2023-06-22T10:57:04;95784.50;;;28.58;68.35
33454;BME280;39400;49.744;7.012;2023-06-22T10:59:29;95776.97;;;30.13;68.03
33454;BME280;39400;49.744;7.012;2023-06-22T11:01:58;95780.13;;;29.73;67.96
33454;BME280;39400;49.744;7.012;2023-06-22T11:04:23;95767.66;;;28.88;66.66
33454;BME280;39400;49.744;7.012;2023-06-22T11:06:49;95776.09;;;29.63;65.58
33454;BME280;39400;49.744;7.012;2023-06-22T11:09:15;95770.13;;;30.32;64.55
33454;BME280;39400;49.744;7.012;2023-06-22T11:11:41;95768.38;;;30.78;63.52
33454;BME280;39400;49.744;7.012;2023-06-22T11:14:06;95760.03;;;29.71;65.56
33454;BME280;39400;49.744;7.012;2023-06-22T11:16:31;95749.81;;;30.72;65.67
33454;BME280;39400;49.744;7.012;2023-06-22T11:18:57;95748.88;;;31.32;65.21
33454;BME280;39400;49.744;7.012;2023-06-22T11:21:22;95744.44;;;31.68;62.86
33454;BME280;39400;49.744;7.012;2023-06-22T11:23:47;95746.03;;;31.83;60.72
33454;BME280;39400;49.744;7.012;2023-06-22T11:26:13;95744.91;;;31.72;58.79
33454;BME280;39400;49.744;7.012;2023-06-22T11:28:38;95743.69;;;31.87;58.55
33454;BME280;39400;49.744;7.012;2023-06-22T11:31:03;95750.28;;;31.95;60.70
33454;BME280;39400;49.744;7.012;2023-06-22T11:33:28;95747.25;;;32.19;58.39
33454;BME280;39400;49.744;7.012;2023-06-22T11:35:54;95736.13;;;32.35;57.42
33454;BME280;39400;49.744;7.012;2023-06-22T11:38:19;95734.72;;;32.41;56.37
33454;BME280;39400;49.744;7.012;2023-06-22T11:40:44;95719.38;;;32.31;57.34
33454;BME280;39400;49.744;7.012;2023-06-22T11:43:10;95712.88;;;32.04;58.63
33454;BME280;39400;49.744;7.012;2023-06-22T11:45:35;95721.28;;;32.68;57.97
33454;BME280;39400;49.744;7.012;2023-06-22T11:48:00;95728.28;;;32.67;56.19
33454;BME280;39400;49.744;7.012;2023-06-22T11:50:26;95714.75;;;32.28;55.30
33454;BME280;39400;49.744;7.012;2023-06-22T11:52:51;95702.88;;;32.43;55.48
33454;BME280;39400;49.744;7.012;2023-06-22T11:55:16;95695.34;;;31.87;55.37
33454;BME280;39400;49.744;7.012;2023-06-22T11:57:56;95683.16;;;32.45;54.89
33454;BME280;39400;49.744;7.012;2023-06-22T12:00:22;95688.53;;;32.62;55.80
33454;BME280;39400;49.744;7.012;2023-06-22T12:02:47;95683.59;;;32.76;57.26
33454;BME280;39400;49.744;7.012;2023-06-22T12:05:12;95670.19;;;31.91;53.92
33454;BME280;39400;49.744;7.012;2023-06-22T12:07:38;95660.81;;;32.49;54.83
33454;BME280;39400;49.744;7.012;2023-06-22T12:10:03;95656.19;;;32.99;55.32
33454;BME280;39400;49.744;7.012;2023-06-22T12:12:29;95651.69;;;33.04;52.38
33454;BME280;39400;49.744;7.012;2023-06-22T12:14:54;95655.50;;;33.06;53.51
33454;BME280;39400;49.744;7.012;2023-06-22T12:17:20;95649.66;;;32.64;53.11
33454;BME280;39400;49.744;7.012;2023-06-22T12:19:45;95649.97;;;32.87;50.88
33454;BME280;39400;49.744;7.012;2023-06-22T12:22:10;95656.41;;;32.88;51.27
33454;BME280;39400;49.744;7.012;2023-06-22T12:24:35;95657.47;;;33.11;50.67
33454;BME280;39400;49.744;7.012;2023-06-22T12:27:01;95645.72;;;32.54;49.92
33454;BME280;39400;49.744;7.012;2023-06-22T12:29:26;95647.34;;;32.76;48.88
33454;BME280;39400;49.744;7.012;2023-06-22T12:35:45;95645.25;;;32.77;50.86
33454;BME280;39400;49.744;7.012;2023-06-22T12:38:26;95638.59;;;32.08;52.70
33454;BME280;39400;49.744;7.012;2023-06-22T12:41:10;95630.25;;;31.96;51.88
33454;BME280;39400;49.744;7.012;2023-06-22T12:43:35;95635.44;;;32.11;52.71
33454;BME280;39400;49.744;7.012;2023-06-22T12:46:00;95613.97;;;32.10;51.88
33454;BME280;39400;49.744;7.012;2023-06-22T12:48:26;95608.47;;;32.65;51.77
33454;BME280;39400;49.744;7.012;2023-06-22T12:50:52;95596.25;;;32.17;50.19
33454;BME280;39400;49.744;7.012;2023-06-22T12:53:17;95603.47;;;31.14;50.44
33454;BME280;39400;49.744;7.012;2023-06-22T12:55:43;95606.03;;;31.63;51.51
33454;BME280;39400;49.744;7.012;2023-06-22T12:58:08;95617.69;;;31.27;54.31
33454;BME280;39400;49.744;7.012;2023-06-22T13:00:33;95625.16;;;30.55;64.29